createdAt,value
2017-08-17T00:00:06.786Z,66.27
2017-08-17T00:01:17.142Z,66.08
2017-08-17T00:02:27.162Z,65.98
2017-08-17T00:03:37.511Z,66.08
2017-08-17T00:04:47.880Z,66.17
2017-08-17T00:05:58.271Z,66.27
2017-08-17T00:07:08.631Z,66.08
2017-08-17T00:08:19.007Z,66.17
2017-08-17T00:09:29.382Z,66.27
2017-08-17T00:10:39.758Z,66.36
2017-08-17T00:11:50.165Z,66.46
2017-08-17T00:13:00.531Z,66.08
2017-08-17T00:14:10.561Z,66.08
2017-08-17T00:15:20.596Z,66.36
2017-08-17T00:16:30.344Z,66.08
2017-08-17T00:17:40.747Z,66.27
2017-08-17T00:18:50.780Z,66.08
2017-08-17T00:20:00.814Z,66.08
2017-08-17T00:21:10.860Z,66.17
2017-08-17T00:22:21.217Z,66.08
2017-08-17T00:23:31.601Z,66.08
2017-08-17T00:24:41.946Z,66.08
2017-08-17T00:25:52.270Z,66.17
2017-08-17T00:27:02.629Z,66.17
2017-08-17T00:28:12.986Z,66.36
2017-08-17T00:29:23.071Z,66.27
2017-08-17T00:30:33.421Z,66.36
2017-08-17T00:31:43.464Z,66.27
2017-08-17T00:32:53.820Z,67.04
2017-08-17T00:34:03.861Z,66.36
2017-08-17T00:35:14.273Z,67.01
2017-08-17T00:36:24.632Z,66.82
2017-08-17T00:37:34.989Z,66.63
2017-08-17T00:38:45.348Z,66.82
2017-08-17T00:39:55.724Z,66.82
2017-08-17T00:41:06.118Z,66.63
2017-08-17T00:42:16.470Z,66.82
2017-08-17T00:43:26.840Z,66.33
2017-08-17T00:44:37.210Z,66.43
2017-08-17T00:45:47.566Z,66.63
2017-08-17T00:46:57.957Z,66.72
2017-08-17T00:48:08.312Z,66.53
2017-08-17T00:49:18.357Z,66.72
2017-08-17T00:50:28.709Z,66.82
2017-08-17T00:51:39.048Z,66.82
2017-08-17T00:52:49.446Z,66.72
2017-08-17T00:53:59.478Z,66.24
2017-08-17T00:55:09.826Z,66.72
2017-08-17T00:56:20.187Z,66.69
2017-08-17T00:57:30.219Z,66.69
2017-08-17T00:58:40.629Z,66.78
2017-08-17T00:59:50.670Z,66.88
2017-08-17T01:01:00.700Z,66.78
2017-08-17T01:02:10.422Z,66.69
2017-08-17T01:03:20.461Z,66.3
2017-08-17T01:04:30.879Z,66.4
2017-08-17T01:05:41.199Z,66.88
2017-08-17T01:06:53.514Z,66.59
2017-08-17T01:08:03.859Z,66.88
2017-08-17T01:09:14.227Z,66.88
2017-08-17T01:10:24.305Z,66.59
2017-08-17T01:11:34.369Z,66.59
2017-08-17T01:12:44.726Z,66.97
2017-08-17T01:13:55.085Z,66.97
2017-08-17T01:15:05.455Z,66.49
2017-08-17T01:16:15.877Z,66.2
2017-08-17T01:17:25.919Z,66.2
2017-08-17T01:18:35.971Z,66.3
2017-08-17T01:19:45.384Z,66.97
2017-08-17T01:20:55.741Z,66.4
2017-08-17T01:22:05.846Z,66.4
2017-08-17T01:23:16.204Z,66.11
2017-08-17T01:24:26.559Z,66.3
2017-08-17T01:25:36.918Z,66.3
2017-08-17T01:26:47.283Z,66.3
2017-08-17T01:27:57.696Z,66.3
2017-08-17T01:29:07.413Z,66.2
2017-08-17T01:30:17.128Z,66.2
2017-08-17T01:31:27.470Z,66.3
2017-08-17T01:32:37.835Z,66.2
2017-08-17T01:33:47.937Z,66.17
2017-08-17T01:34:57.967Z,66.3
2017-08-17T01:36:08.000Z,66.27
2017-08-17T01:37:18.357Z,66.3
2017-08-17T01:38:28.389Z,66.36
2017-08-17T01:39:38.474Z,66.3
2017-08-17T01:40:48.503Z,66.3
2017-08-17T01:41:58.849Z,66.4
2017-08-17T01:43:09.178Z,66.36
2017-08-17T01:44:19.511Z,66.17
2017-08-17T01:45:29.601Z,66.2
2017-08-17T01:46:39.946Z,66.56
2017-08-17T01:47:49.961Z,66.75
2017-08-17T01:49:00.376Z,66.94
2017-08-17T01:50:10.730Z,66.66
2017-08-17T01:51:21.150Z,66.66
2017-08-17T01:52:31.492Z,66.66
2017-08-17T01:53:41.833Z,66.56
2017-08-17T01:54:54.037Z,66.56
2017-08-17T01:56:04.068Z,66.17
2017-08-17T01:57:14.161Z,66.17
2017-08-17T01:58:24.512Z,66.27
2017-08-17T01:59:34.871Z,66.17
2017-08-17T02:00:45.227Z,65.98
2017-08-17T02:01:55.597Z,66.08
2017-08-17T02:03:06.013Z,66.08
2017-08-17T02:04:16.385Z,66.08
2017-08-17T02:05:26.732Z,65.88
2017-08-17T02:06:36.779Z,66.08
2017-08-17T02:07:46.821Z,66.17
2017-08-17T02:08:56.601Z,65.98
2017-08-17T02:10:06.972Z,66.17
2017-08-17T02:11:17.022Z,66.17
2017-08-17T02:12:27.363Z,66.94
2017-08-17T02:13:37.718Z,66.94
2017-08-17T02:14:48.119Z,66.85
2017-08-17T02:15:58.156Z,66.66
2017-08-17T02:17:08.193Z,66.75
2017-08-17T02:18:18.530Z,66.36
2017-08-17T02:19:28.880Z,66.36
2017-08-17T02:20:39.283Z,66.17
2017-08-17T02:21:49.321Z,66.17
2017-08-17T02:22:59.670Z,66.56
2017-08-17T02:24:09.712Z,66.82
2017-08-17T02:25:19.748Z,66.33
2017-08-17T02:26:30.166Z,66.52
2017-08-17T02:27:40.513Z,66.72
2017-08-17T02:28:50.857Z,66.33
2017-08-17T02:30:01.238Z,66.91
2017-08-17T02:31:11.287Z,66.36
2017-08-17T02:32:21.681Z,66.33
2017-08-17T02:33:32.026Z,66.24
2017-08-17T02:34:42.096Z,66.33
2017-08-17T02:35:52.436Z,66.72
2017-08-17T02:37:02.490Z,66.82
2017-08-17T02:38:12.901Z,66.24
2017-08-17T02:39:22.949Z,66.24
2017-08-17T02:40:33.577Z,66.24
2017-08-17T02:41:43.315Z,66.14
2017-08-17T02:42:53.670Z,66.14
2017-08-17T02:44:04.074Z,66.04
2017-08-17T02:45:14.126Z,66.82
2017-08-17T02:46:24.477Z,66.33
2017-08-17T02:47:34.834Z,66.91
2017-08-17T02:48:45.221Z,66.91
2017-08-17T02:49:55.624Z,66.52
2017-08-17T02:51:05.977Z,66.14
2017-08-17T02:52:16.366Z,66.14
2017-08-17T02:53:26.760Z,66.33
2017-08-17T02:54:36.805Z,66.04
2017-08-17T02:55:47.201Z,66.33
2017-08-17T02:56:57.550Z,66.14
2017-08-17T02:58:07.896Z,66.14
2017-08-17T02:59:18.252Z,66.24
2017-08-17T03:00:28.607Z,66.33
2017-08-17T03:01:38.992Z,66.52
2017-08-17T03:33:30.865Z,63.99
2017-08-17T03:34:40.903Z,64.47
2017-08-17T03:35:50.942Z,64.63
2017-08-17T03:37:01.309Z,65.59
2017-08-17T03:38:11.647Z,65.88
2017-08-17T03:39:21.723Z,66.36
2017-08-17T03:40:32.064Z,66.36
2017-08-17T03:41:42.437Z,66.49
2017-08-17T03:42:52.789Z,66.68
2017-08-17T03:44:02.820Z,66.87
2017-08-17T03:45:12.898Z,66.91
2017-08-17T03:46:23.244Z,66.91
2017-08-17T03:47:33.634Z,66.71
2017-08-17T03:48:43.983Z,66.94
2017-08-17T03:49:54.020Z,66.84
2017-08-17T03:51:04.437Z,67.03
2017-08-17T03:52:14.467Z,66.78
2017-08-17T03:53:24.829Z,66.78
2017-08-17T03:54:35.472Z,66.68
2017-08-17T03:55:45.530Z,66.49
2017-08-17T03:56:55.950Z,66.49
2017-08-17T03:58:06.310Z,66.91
2017-08-17T03:59:16.650Z,66.24
2017-08-17T04:00:27.004Z,66.04
2017-08-17T04:01:37.363Z,66.42
2017-08-17T04:02:47.779Z,66.33
2017-08-17T04:03:58.144Z,66.52
2017-08-17T04:05:08.516Z,66.81
2017-08-17T04:06:18.893Z,66.17
2017-08-17T04:07:29.257Z,65.88
2017-08-17T04:08:39.348Z,65.98
2017-08-17T04:09:49.705Z,65.98
2017-08-17T04:10:59.447Z,66.17
2017-08-17T04:12:09.797Z,66.07
2017-08-17T04:13:20.157Z,65.98
2017-08-17T04:14:30.576Z,66.07
2017-08-17T04:15:40.940Z,65.98
2017-08-17T04:16:50.977Z,65.72
2017-08-17T04:18:01.332Z,65.59
2017-08-17T04:19:11.701Z,65.59
2017-08-17T04:20:21.785Z,65.63
2017-08-17T04:21:32.131Z,66.11
2017-08-17T04:22:42.176Z,66.01
2017-08-17T04:23:52.540Z,66.01
2017-08-17T04:25:02.913Z,65.33
2017-08-17T04:26:12.995Z,65.33
2017-08-17T04:27:23.032Z,66.2
2017-08-17T04:28:33.382Z,65.53
2017-08-17T04:29:43.744Z,65.81
2017-08-17T04:30:53.787Z,65.43
2017-08-17T04:32:03.889Z,64.79
2017-08-17T04:33:14.246Z,64.79
2017-08-17T04:34:24.284Z,65.2
2017-08-17T04:35:34.641Z,64.82
2017-08-17T04:36:44.994Z,65.69
2017-08-17T04:37:55.091Z,65.88
2017-08-17T04:39:05.470Z,65.01
2017-08-17T04:40:15.500Z,64.18
2017-08-17T04:41:25.853Z,63.73
2017-08-17T04:42:36.202Z,64.31
2017-08-17T04:43:46.606Z,64.98
2017-08-17T04:44:56.648Z,65.08
2017-08-17T04:46:06.992Z,66.05
2017-08-17T04:47:17.032Z,66.05
2017-08-17T04:48:27.077Z,66.33
2017-08-17T04:49:37.493Z,65.95
2017-08-17T04:50:47.849Z,65.56
2017-08-17T04:51:58.203Z,65.3
2017-08-17T04:53:08.573Z,64.76
2017-08-17T04:54:18.621Z,64.11
2017-08-17T04:55:28.723Z,63.37
2017-08-17T04:56:38.769Z,62.95
2017-08-17T04:57:49.130Z,62.4
2017-08-17T04:58:59.483Z,62.33
2017-08-17T05:00:09.834Z,61.98
2017-08-17T05:01:20.238Z,61.81
2017-08-17T05:02:30.278Z,61.32
2017-08-17T05:03:40.659Z,61.55
2017-08-17T05:04:50.707Z,61.68
2017-08-17T05:06:01.053Z,61.68
2017-08-17T05:07:11.456Z,61.58
2017-08-17T05:08:21.493Z,61.32
2017-08-17T05:09:31.547Z,62.1
2017-08-17T05:10:41.902Z,62.58
2017-08-17T05:11:51.943Z,62.1
2017-08-17T05:13:02.046Z,62.29
2017-08-17T05:14:12.088Z,62.1
2017-08-17T05:15:22.438Z,62.97
2017-08-17T05:16:32.792Z,62.81
2017-08-17T05:17:43.141Z,62.77
2017-08-17T05:18:53.545Z,62.9
2017-08-17T05:20:03.901Z,62.97
2017-08-17T05:21:13.926Z,62.51
2017-08-17T05:22:24.275Z,62.9
2017-08-17T05:23:34.634Z,62.81
2017-08-17T05:24:45.036Z,62.61
2017-08-17T05:25:54.755Z,62.81
2017-08-17T05:27:05.118Z,62.81
2017-08-17T05:28:17.296Z,62.51
2017-08-17T05:29:29.369Z,62.71
2017-08-17T05:30:39.791Z,62.93
2017-08-17T05:31:49.836Z,62.64
2017-08-17T05:32:59.857Z,62.93
2017-08-17T05:34:09.926Z,62.96
2017-08-17T05:35:20.294Z,62.67
2017-08-17T05:36:30.703Z,62.87
2017-08-17T05:37:41.067Z,62.67
2017-08-17T05:38:51.451Z,62.67
2017-08-17T05:40:01.810Z,62.67
2017-08-17T05:41:11.864Z,62.87
2017-08-17T05:42:22.269Z,62.99
2017-08-17T05:43:32.620Z,63.09
2017-08-17T05:44:42.975Z,62.99
2017-08-17T05:45:52.703Z,62.9
2017-08-17T05:47:02.742Z,62.7
2017-08-17T05:48:12.841Z,62.9
2017-08-17T05:49:23.219Z,62.9
2017-08-17T05:50:33.587Z,63.09
2017-08-17T05:51:43.616Z,63.12
2017-08-17T05:52:54.000Z,63.32
2017-08-17T05:54:04.432Z,64.36
2017-08-17T05:55:14.474Z,65.08
2017-08-17T05:56:24.822Z,65.14
2017-08-17T05:57:34.879Z,65.79
2017-08-17T05:58:44.919Z,65.89
2017-08-17T05:59:55.336Z,65.85
2017-08-17T06:01:05.678Z,65.85
2017-08-17T06:02:15.740Z,66.05
2017-08-17T06:03:26.103Z,65.95
2017-08-17T06:04:36.448Z,65.72
2017-08-17T06:05:46.857Z,65.33
2017-08-17T06:06:57.220Z,65.33
2017-08-17T06:08:07.599Z,65.43
2017-08-17T06:09:17.640Z,65.33
2017-08-17T06:10:27.675Z,65.53
2017-08-17T06:11:37.770Z,65.43
2017-08-17T06:12:48.119Z,65.43
2017-08-17T06:13:58.457Z,65.43
2017-08-17T06:15:08.488Z,65.4
2017-08-17T06:16:18.850Z,65.3
2017-08-17T06:17:28.936Z,65.2
2017-08-17T06:18:39.277Z,65.3
2017-08-17T06:19:49.647Z,65.59
2017-08-17T06:20:59.686Z,65.5
2017-08-17T06:22:10.039Z,65.2
2017-08-17T06:23:20.428Z,65.4
2017-08-17T06:24:30.797Z,65.4
2017-08-17T06:25:41.150Z,64.72
2017-08-17T06:26:51.503Z,64.92
2017-08-17T06:28:01.529Z,64.82
2017-08-17T06:29:11.924Z,64.92
2017-08-17T06:30:22.287Z,65.01
2017-08-17T06:31:32.666Z,64.33
2017-08-17T06:32:42.709Z,64.95
2017-08-17T06:33:53.059Z,65.01
2017-08-17T06:35:03.148Z,64.85
2017-08-17T06:36:13.517Z,64.75
2017-08-17T06:37:23.859Z,64.36
2017-08-17T06:38:33.885Z,64.65
2017-08-17T06:39:44.250Z,64.75
2017-08-17T06:40:54.660Z,65.14
2017-08-17T06:42:05.020Z,64.65
2017-08-17T06:43:15.384Z,64.72
2017-08-17T06:44:25.748Z,65.05
2017-08-17T06:45:36.113Z,64.72
2017-08-17T06:46:45.893Z,64.95
2017-08-17T06:47:56.254Z,64.85
2017-08-17T06:49:06.605Z,65.05
2017-08-17T06:50:16.339Z,65.01
2017-08-17T06:51:26.394Z,65.11
2017-08-17T06:52:36.795Z,64.36
2017-08-17T06:53:47.134Z,64.75
2017-08-17T06:54:56.851Z,64.75
2017-08-17T06:56:07.187Z,64.92
2017-08-17T06:57:17.535Z,65.05
2017-08-17T06:58:27.945Z,64.46
2017-08-17T06:59:37.960Z,64.46
2017-08-17T07:00:48.031Z,64.56
2017-08-17T07:01:58.386Z,64.69
2017-08-17T07:03:08.422Z,64.78
2017-08-17T07:04:18.519Z,64.69
2017-08-17T07:05:28.861Z,64.11
2017-08-17T07:06:39.193Z,64.4
2017-08-17T07:07:49.548Z,64.4
2017-08-17T07:08:59.599Z,64.69
2017-08-17T07:10:10.017Z,64.01
2017-08-17T07:11:20.375Z,64.65
2017-08-17T07:12:30.727Z,64.49
2017-08-17T07:13:41.082Z,64.4
2017-08-17T07:14:51.455Z,64.69
2017-08-17T07:16:01.858Z,64.62
2017-08-17T07:17:11.587Z,64.53
2017-08-17T07:18:21.937Z,64.72
2017-08-17T07:19:32.283Z,64.72
2017-08-17T07:20:42.658Z,64.72
2017-08-17T07:21:55.102Z,64.72
2017-08-17T07:23:05.737Z,64.62
2017-08-17T07:24:15.778Z,64.62
2017-08-17T07:25:26.135Z,64.53
2017-08-17T07:26:36.492Z,64.62
2017-08-17T07:27:47.069Z,64.53
2017-08-17T07:28:57.418Z,64.43
2017-08-17T07:30:07.773Z,64.26
2017-08-17T07:31:17.824Z,64.26
2017-08-17T07:32:28.181Z,64.07
2017-08-17T07:33:38.588Z,64.36
2017-08-17T07:34:48.616Z,64.26
2017-08-17T07:35:58.971Z,63.78
2017-08-17T07:37:09.325Z,64.17
2017-08-17T07:38:19.675Z,64.07
2017-08-17T07:39:30.069Z,64.39
2017-08-17T07:40:40.114Z,64.39
2017-08-17T07:41:50.164Z,64.17
2017-08-17T07:43:00.513Z,64.2
2017-08-17T07:44:10.866Z,64
2017-08-17T07:45:21.254Z,64
2017-08-17T07:46:31.617Z,64.1
2017-08-17T07:47:41.664Z,64.29
2017-08-17T07:48:52.041Z,64.29
2017-08-17T07:50:02.394Z,64.39
2017-08-17T07:51:12.494Z,64.2
2017-08-17T07:52:22.229Z,64.13
2017-08-17T07:53:32.265Z,64.23
2017-08-17T07:54:42.299Z,64.2
2017-08-17T07:55:52.651Z,64.32
2017-08-17T07:57:03.048Z,64.23
2017-08-17T07:58:13.104Z,64.23
2017-08-17T07:59:23.456Z,64.42
2017-08-17T08:00:33.809Z,64.04
2017-08-17T08:01:43.850Z,64.32
2017-08-17T08:02:53.937Z,64.32
2017-08-17T08:04:04.299Z,64.32
2017-08-17T08:05:14.346Z,64.23
2017-08-17T08:06:24.693Z,64.13
2017-08-17T08:07:35.048Z,64.36
2017-08-17T08:08:45.480Z,64.07
2017-08-17T08:09:55.841Z,63.97
2017-08-17T08:11:06.174Z,64.29
2017-08-17T08:12:16.525Z,64.39
2017-08-17T08:13:26.878Z,64.2
2017-08-17T08:14:36.967Z,64.2
2017-08-17T08:15:47.342Z,63.9
2017-08-17T08:16:57.388Z,64.2
2017-08-17T08:18:07.774Z,64
2017-08-17T08:19:18.116Z,64.29
2017-08-17T08:20:27.873Z,64.49
2017-08-17T08:21:37.911Z,64.49
2017-08-17T08:22:48.384Z,64.49
2017-08-17T08:23:58.735Z,64.2
2017-08-17T08:25:08.766Z,64.29
2017-08-17T08:26:19.173Z,64.29
2017-08-17T08:27:29.530Z,64.29
2017-08-17T08:28:39.262Z,64.29
2017-08-17T08:29:49.309Z,64.29
2017-08-17T08:30:59.661Z,64.42
2017-08-17T08:32:09.750Z,64.32
2017-08-17T08:33:23.442Z,64.13
2017-08-17T08:34:35.395Z,64.03
2017-08-17T08:35:45.437Z,64.26
2017-08-17T08:36:55.820Z,63.35
2017-08-17T08:38:06.337Z,64.26
2017-08-17T08:39:16.378Z,64.26
2017-08-17T08:40:26.750Z,63.67
2017-08-17T08:41:36.477Z,63.57
2017-08-17T08:42:46.823Z,63.77
2017-08-17T08:43:57.174Z,64.16
2017-08-17T08:45:07.205Z,64.06
2017-08-17T08:46:17.553Z,64.09
2017-08-17T08:47:27.476Z,64.26
2017-08-17T08:48:37.823Z,64.36
2017-08-17T08:49:47.868Z,64.36
2017-08-17T08:50:58.229Z,64.06
2017-08-17T08:52:08.568Z,64.09
2017-08-17T08:53:19.074Z,64.29
2017-08-17T08:54:29.433Z,64.39
2017-08-17T08:55:39.791Z,63.41
2017-08-17T08:56:49.520Z,64.29
2017-08-17T08:57:59.571Z,64.29
2017-08-17T08:59:09.675Z,64.09
2017-08-17T09:00:19.708Z,64
2017-08-17T09:01:30.060Z,64.29
2017-08-17T09:02:42.071Z,64
2017-08-17T09:03:52.414Z,64.09
2017-08-17T09:05:02.817Z,64.19
2017-08-17T09:06:13.151Z,64.09
2017-08-17T09:07:23.910Z,64.29
2017-08-17T09:08:35.926Z,64.29
2017-08-17T09:09:46.272Z,63.64
2017-08-17T09:10:56.676Z,63.64
2017-08-17T09:12:07.052Z,63.73
2017-08-17T09:13:17.101Z,63.77
2017-08-17T09:14:27.464Z,63.96
2017-08-17T09:15:37.828Z,64.06
2017-08-17T09:16:48.228Z,63.96
2017-08-17T09:17:58.589Z,63.67
2017-08-17T09:19:08.938Z,63.38
2017-08-17T09:20:19.021Z,63.96
2017-08-17T09:21:29.386Z,64.16
2017-08-17T09:22:39.470Z,63.87
2017-08-17T09:23:49.830Z,63.7
2017-08-17T09:24:59.870Z,63.67
2017-08-17T09:26:10.233Z,63.8
2017-08-17T09:27:20.270Z,63.7
2017-08-17T09:28:30.685Z,63.7
2017-08-17T09:29:41.033Z,63.7
2017-08-17T09:30:51.075Z,63.7
2017-08-17T09:32:01.430Z,63.7
2017-08-17T09:33:11.781Z,63.8
2017-08-17T09:34:21.870Z,63.9
2017-08-17T09:35:31.914Z,63.93
2017-08-17T09:36:42.274Z,64.09
2017-08-17T09:37:51.999Z,64.03
2017-08-17T09:39:02.360Z,63.64
2017-08-17T09:40:12.155Z,63.44
2017-08-17T09:41:22.519Z,63.15
2017-08-17T09:42:32.881Z,63.18
2017-08-17T09:43:43.227Z,63.47
2017-08-17T09:44:53.265Z,63.6
2017-08-17T09:46:03.694Z,63.4
2017-08-17T09:47:14.048Z,63.5
2017-08-17T09:48:24.412Z,63.5
2017-08-17T09:49:34.778Z,64.25
2017-08-17T09:50:45.465Z,64.42
2017-08-17T09:51:55.566Z,64.42
2017-08-17T09:53:05.615Z,64.32
2017-08-17T09:54:15.980Z,64.15
2017-08-17T09:55:26.334Z,63.57
2017-08-17T09:56:36.675Z,63.18
2017-08-17T09:57:47.078Z,63.4
2017-08-17T09:58:57.451Z,63.4
2017-08-17T10:00:07.499Z,63.4
2017-08-17T10:01:17.856Z,63.6
2017-08-17T10:02:28.204Z,63.5
2017-08-17T10:03:38.610Z,63.53
2017-08-17T10:04:48.656Z,63.63
2017-08-17T10:05:59.029Z,63.24
2017-08-17T10:07:09.384Z,63.63
2017-08-17T10:08:19.717Z,63.63
2017-08-17T10:09:29.174Z,63.85
2017-08-17T10:10:39.535Z,63.76
2017-08-17T10:11:49.886Z,63.27
2017-08-17T10:13:00.252Z,63.27
2017-08-17T10:14:10.610Z,63.37
2017-08-17T10:15:20.416Z,64.61
2017-08-17T10:16:30.463Z,63.92
2017-08-17T10:17:40.814Z,64.02
2017-08-17T10:18:50.863Z,63.82
2017-08-17T10:20:01.216Z,63.63
2017-08-17T10:21:12.329Z,63.37
2017-08-17T10:22:22.713Z,63.37
2017-08-17T10:23:32.445Z,63.56
2017-08-17T10:24:42.486Z,63.56
2017-08-17T10:25:52.532Z,63.66
2017-08-17T10:27:02.953Z,63.66
2017-08-17T10:28:13.311Z,63.66
2017-08-17T10:29:23.660Z,63.76
2017-08-17T10:30:34.026Z,63.46
2017-08-17T10:31:44.369Z,63.59
2017-08-17T10:32:54.796Z,63.49
2017-08-17T10:34:04.846Z,63.59
2017-08-17T10:35:15.237Z,63.3
2017-08-17T10:36:25.604Z,63.46
2017-08-17T10:37:35.657Z,63.59
2017-08-17T10:38:46.056Z,63.59
2017-08-17T10:39:57.940Z,63.69
2017-08-17T10:41:08.297Z,63.72
2017-08-17T10:42:18.351Z,63.92
2017-08-17T10:43:28.693Z,63.72
2017-08-17T10:44:39.107Z,63.92
2017-08-17T10:45:49.455Z,63.72
2017-08-17T10:46:59.802Z,63.82
2017-08-17T10:48:10.155Z,63.72
2017-08-17T10:49:20.525Z,63.62
2017-08-17T10:50:30.627Z,63.82
2017-08-17T10:51:40.983Z,63.62
2017-08-17T10:52:50.705Z,63.43
2017-08-17T10:54:01.054Z,63.92
2017-08-17T10:55:11.403Z,63.65
2017-08-17T10:56:21.493Z,63.33
2017-08-17T10:57:33.401Z,63.36
2017-08-17T10:58:43.763Z,63.65
2017-08-17T10:59:54.115Z,63.17
2017-08-17T11:01:04.474Z,63.17
2017-08-17T11:02:16.613Z,63.46
2017-08-17T11:03:26.975Z,63.36
2017-08-17T11:04:37.068Z,63.36
2017-08-17T11:05:47.119Z,63.36
2017-08-17T11:06:57.157Z,63.65
2017-08-17T11:08:07.213Z,63.17
2017-08-17T11:09:17.255Z,63.49
2017-08-17T11:10:27.630Z,63.39
2017-08-17T11:11:38.008Z,63.78
2017-08-17T11:12:48.069Z,64.64
2017-08-17T11:13:58.422Z,64.8
2017-08-17T11:15:08.454Z,65.26
2017-08-17T11:16:18.558Z,65.13
2017-08-17T11:17:28.646Z,65.52
2017-08-17T11:18:38.998Z,65.49
2017-08-17T11:19:49.365Z,65.98
2017-08-17T11:20:59.721Z,65.75
2017-08-17T11:22:09.753Z,66.05
2017-08-17T11:23:20.138Z,65.85
2017-08-17T11:24:30.518Z,66.11
2017-08-17T11:25:40.555Z,65.72
2017-08-17T11:26:50.297Z,65.33
2017-08-17T11:28:00.653Z,64.77
2017-08-17T11:29:11.070Z,64.8
2017-08-17T11:30:21.428Z,64.22
2017-08-17T11:31:31.791Z,63.46
2017-08-17T11:32:42.616Z,63.2
2017-08-17T11:33:52.362Z,63.62
2017-08-17T11:35:02.768Z,62.84
2017-08-17T11:36:13.843Z,62.94
2017-08-17T11:37:25.506Z,62.87
2017-08-17T11:38:35.867Z,62.7
2017-08-17T11:39:46.225Z,62.81
2017-08-17T11:40:56.618Z,62.6
2017-08-17T11:42:06.991Z,62.51
2017-08-17T11:43:17.356Z,62.6
2017-08-17T11:44:27.705Z,62.41
2017-08-17T11:45:38.064Z,63.13
2017-08-17T11:46:48.462Z,62.93
2017-08-17T11:47:58.219Z,62.73
2017-08-17T11:49:08.557Z,62.93
2017-08-17T11:50:18.612Z,62.96
2017-08-17T11:51:28.949Z,63.06
2017-08-17T11:52:39.043Z,63.06
2017-08-17T11:53:49.081Z,63.26
2017-08-17T11:54:59.448Z,63.16
2017-08-17T11:56:09.798Z,63.29
2017-08-17T11:57:19.843Z,62.9
2017-08-17T11:58:29.919Z,63.06
2017-08-17T11:59:39.956Z,62.9
2017-08-17T12:00:51.301Z,62.99
2017-08-17T12:02:03.456Z,62.76
2017-08-17T12:03:13.497Z,62.79
2017-08-17T12:04:23.904Z,63.09
2017-08-17T12:05:34.067Z,62.79
2017-08-17T12:06:43.849Z,63.09
2017-08-17T12:07:54.215Z,63.19
2017-08-17T12:09:04.550Z,62.82
2017-08-17T12:10:14.641Z,62.79
2017-08-17T12:11:24.710Z,62.99
2017-08-17T12:12:37.377Z,63.09
2017-08-17T12:13:49.294Z,62.79
2017-08-17T12:15:00.509Z,62.99
2017-08-17T12:16:10.929Z,63.09
2017-08-17T12:17:21.288Z,62.99
2017-08-17T12:18:31.643Z,63.02
2017-08-17T12:19:42.001Z,62.82
2017-08-17T12:20:52.375Z,63.12
2017-08-17T12:22:02.809Z,63.02
2017-08-17T12:23:13.163Z,62.73
2017-08-17T12:24:23.220Z,63.22
2017-08-17T12:25:33.575Z,62.73
2017-08-17T12:26:45.469Z,63.32
2017-08-17T12:27:55.877Z,62.82
2017-08-17T12:29:06.235Z,63.22
2017-08-17T12:30:16.582Z,63.02
2017-08-17T12:31:26.634Z,63.15
2017-08-17T12:32:36.366Z,63.15
2017-08-17T12:33:46.769Z,63.15
2017-08-17T12:34:56.813Z,63.28
2017-08-17T12:36:07.525Z,62.99
2017-08-17T12:37:17.874Z,63.09
2017-08-17T12:38:27.613Z,62.99
2017-08-17T12:39:38.005Z,63.06
2017-08-17T12:40:48.037Z,62.88
2017-08-17T12:41:58.403Z,63.09
2017-08-17T12:43:08.438Z,63.09
2017-08-17T12:44:21.244Z,63.09
2017-08-17T12:45:31.677Z,63.09
2017-08-17T12:46:42.031Z,63.09
2017-08-17T12:47:52.377Z,62.99
2017-08-17T12:49:02.752Z,63.09
2017-08-17T12:50:13.105Z,63.09
2017-08-17T12:51:23.512Z,63.48
2017-08-17T12:52:33.872Z,63.48
2017-08-17T12:53:44.234Z,62.79
2017-08-17T12:54:54.610Z,63.18
2017-08-17T12:56:04.976Z,62.88
2017-08-17T12:57:15.059Z,62.99
2017-08-17T12:58:25.430Z,63.57
2017-08-17T12:59:35.796Z,63.67
2017-08-17T13:00:46.156Z,63.67
2017-08-17T13:01:56.490Z,63.67
2017-08-17T13:03:06.587Z,63.54
2017-08-17T13:04:18.160Z,63.67
2017-08-17T13:05:28.196Z,63.67
2017-08-17T13:06:38.553Z,63.67
2017-08-17T13:07:48.899Z,63.67
2017-08-17T13:08:58.999Z,63.48
2017-08-17T13:10:09.376Z,63.87
2017-08-17T13:11:19.749Z,63.41
2017-08-17T13:12:30.107Z,63.41
2017-08-17T13:13:40.463Z,63.51
2017-08-17T13:14:50.587Z,63.31
2017-08-17T13:16:00.950Z,62.79
2017-08-17T13:17:11.308Z,63.41
2017-08-17T13:18:21.659Z,63.9
2017-08-17T13:19:32.003Z,63.6
2017-08-17T13:20:49.146Z,63.67
2017-08-17T13:21:59.510Z,63.57
2017-08-17T13:23:11.584Z,63.87
2017-08-17T13:24:21.609Z,63.57
2017-08-17T13:25:31.951Z,63.57
2017-08-17T13:26:42.048Z,63.57
2017-08-17T13:27:52.401Z,63.87
2017-08-17T13:29:02.778Z,63.57
2017-08-17T13:30:13.148Z,63.78
2017-08-17T13:31:23.515Z,63.97
2017-08-17T13:32:33.918Z,63.97
2017-08-17T13:33:43.968Z,63.94
2017-08-17T13:34:54.322Z,63.97
2017-08-17T13:36:06.082Z,64.04
2017-08-17T13:37:16.463Z,64.04
2017-08-17T13:38:26.884Z,64.14
2017-08-17T13:39:36.932Z,64.04
2017-08-17T13:40:47.293Z,64.04
2017-08-17T13:41:57.630Z,64.04
2017-08-17T13:43:09.028Z,64.04
2017-08-17T13:44:19.455Z,64.14
2017-08-17T13:45:29.834Z,64.14
2017-08-17T13:46:40.187Z,64.04
2017-08-17T13:47:50.539Z,63.64
2017-08-17T13:49:00.263Z,63.84
2017-08-17T13:50:10.691Z,63.84
2017-08-17T13:51:21.056Z,63.74
2017-08-17T13:52:31.097Z,63.54
2017-08-17T13:53:41.465Z,63.84
2017-08-17T13:54:51.841Z,63.94
2017-08-17T13:56:01.934Z,63.45
2017-08-17T13:57:12.287Z,63.84
2017-08-17T13:58:22.665Z,63.74
2017-08-17T13:59:36.272Z,63.64
2017-08-17T14:00:46.633Z,63.64
2017-08-17T14:01:57.057Z,63.84
2017-08-17T14:03:07.117Z,63.94
2017-08-17T14:04:17.475Z,63.84
2017-08-17T14:05:27.524Z,63.54
2017-08-17T14:06:37.893Z,63.48
2017-08-17T14:07:49.188Z,63.54
2017-08-17T14:08:59.593Z,64.07
2017-08-17T14:10:09.967Z,63.94
2017-08-17T14:11:20.010Z,63.64
2017-08-17T14:12:30.382Z,63.64
2017-08-17T14:13:40.489Z,63.74
2017-08-17T14:14:52.084Z,63.64
2017-08-17T14:16:02.446Z,63.84
2017-08-17T14:17:12.801Z,63.94
2017-08-17T14:18:23.141Z,63.94
2017-08-17T14:19:33.250Z,64.14
2017-08-17T14:20:43.298Z,63.84
2017-08-17T14:21:53.671Z,64.14
2017-08-17T14:23:04.031Z,63.84
2017-08-17T14:24:14.101Z,63.84
2017-08-17T14:25:24.191Z,63.54
2017-08-17T14:26:34.215Z,64.04
2017-08-17T14:27:44.584Z,64.04
2017-08-17T14:28:54.946Z,64.17
2017-08-17T14:30:05.329Z,63.94
2017-08-17T14:31:15.744Z,63.97
2017-08-17T14:32:26.102Z,63.87
2017-08-17T14:33:36.453Z,63.67
2017-08-17T14:34:46.812Z,63.87
2017-08-17T14:35:56.859Z,63.97
2017-08-17T14:37:07.293Z,63.97
2017-08-17T14:38:17.349Z,63.64
2017-08-17T14:39:27.713Z,63.57
2017-08-17T14:40:37.751Z,63.74
2017-08-17T14:41:47.504Z,63.45
2017-08-17T14:42:57.904Z,63.94
2017-08-17T14:44:08.266Z,63.74
2017-08-17T14:45:18.602Z,63.94
2017-08-17T14:46:28.956Z,63.45
2017-08-17T14:47:39.567Z,63.74
2017-08-17T14:48:49.990Z,63.84
2017-08-17T14:50:01.395Z,63.64
2017-08-17T14:51:11.765Z,63.54
2017-08-17T14:52:22.131Z,63.64
2017-08-17T14:53:34.404Z,63.74
2017-08-17T14:54:44.805Z,63.54
2017-08-17T14:55:55.165Z,63.74
2017-08-17T14:57:05.209Z,63.84
2017-08-17T14:58:15.580Z,63.94
2017-08-17T14:59:25.949Z,64.43
2017-08-17T15:00:36.036Z,64.23
2017-08-17T15:01:46.081Z,63.81
2017-08-17T15:02:56.128Z,64.79
2017-08-17T15:04:06.478Z,64.79
2017-08-17T15:05:18.676Z,64.89
2017-08-17T15:06:29.066Z,64.69
2017-08-17T15:07:39.425Z,64.59
2017-08-17T15:08:49.471Z,64.66
2017-08-17T15:09:59.504Z,64.79
2017-08-17T15:11:09.893Z,63.91
2017-08-17T15:12:19.987Z,64.4
2017-08-17T15:13:30.027Z,64.59
2017-08-17T15:14:40.377Z,64.3
2017-08-17T15:15:50.429Z,64.2
2017-08-17T15:17:00.790Z,64.3
2017-08-17T15:18:11.183Z,64.11
2017-08-17T15:19:21.534Z,64.3
2017-08-17T15:20:31.594Z,64.2
2017-08-17T15:21:41.643Z,64.3
2017-08-17T15:22:51.383Z,64.11
2017-08-17T15:24:01.793Z,64.11
2017-08-17T15:25:12.148Z,64.79
2017-08-17T15:26:22.494Z,64.69
2017-08-17T15:27:32.854Z,64.89
2017-08-17T15:28:42.892Z,64.59
2017-08-17T15:29:52.679Z,64.56
2017-08-17T15:31:03.040Z,64.56
2017-08-17T15:32:13.387Z,64.76
2017-08-17T15:33:23.113Z,64.86
2017-08-17T15:34:33.461Z,64.37
2017-08-17T15:35:43.872Z,64.56
2017-08-17T15:36:54.236Z,64.66
2017-08-17T15:38:04.283Z,64.66
2017-08-17T15:39:14.317Z,64.56
2017-08-17T15:40:24.679Z,65.06